Time;durP1;ratioP1;P1;durP2;ratioP2;P2;SDS_P1;SDS_P2;PMS_P1;PMS_P2;Temp;Humidity;BMP_temperature;BMP_pressure;BME280_temperature;BME280_humidity;BME280_pressure;Samples;Min_cycle;Max_cycle;Signal;HPM_P1;HPM_P2
2023/07/11 00:01:30;;;;;;;6.45;3.67;;;;;;;21.85;nan;61818.72;5031778;28;20172;-57
2023/07/11 00:03:55;;;;;;;6.25;3.90;;;;;;;21.74;nan;61764.03;5030671;28;20265;-57
2023/07/11 00:06:20;;;;;;;4.53;3.42;;;;;;;21.94;nan;61841.97;5031362;28;20218;-58
2023/07/11 00:08:48;;;;;;;4.43;3.50;;;;;;;21.77;nan;61768.03;5031296;28;20555;-59
2023/07/11 00:11:16;;;;;;;5.50;3.70;;;;;;;21.66;nan;61784.16;5031558;28;20172;-57
2023/07/11 00:13:42;;;;;;;5.10;3.92;;;;;;;21.25;nan;61740.81;5031525;28;20536;-57
2023/07/11 00:16:10;;;;;;;5.07;3.70;;;;;;;21.22;nan;61830.41;5031371;28;20167;-58
2023/07/11 00:18:36;;;;;;;5.43;3.92;;;;;;;21.28;nan;61728.59;5031367;28;20641;-58
2023/07/11 00:21:02;;;;;;;4.65;3.50;;;;;;;21.20;nan;61718.97;5030383;28;20183;-58
2023/07/11 00:23:27;;;;;;;7.15;3.83;;;;;;;21.26;nan;61720.59;5031130;28;20194;-58
2023/07/11 00:25:53;;;;;;;5.22;3.80;;;;;;;20.97;nan;61636.28;5031573;28;20175;-58
2023/07/11 00:28:20;;;;;;;5.97;4.15;;;;;;;21.35;nan;61741.19;5031487;28;20175;-58
2023/07/11 00:30:47;;;;;;;5.43;4.22;;;;;;;21.10;nan;61674.97;5031289;28;20179;-58
2023/07/11 00:33:12;;;;;;;6.45;4.28;;;;;;;21.30;nan;61840.06;5031194;28;20210;-58
2023/07/11 00:35:38;;;;;;;6.68;4.13;;;;;;;21.20;nan;61739.75;5030935;28;20176;-58
2023/07/11 00:38:04;;;;;;;7.25;4.20;;;;;;;21.55;nan;61771.66;5031518;28;20274;-57
2023/07/11 00:40:30;;;;;;;7.00;4.30;;;;;;;21.65;nan;61767.41;5031170;28;20647;-57
2023/07/11 00:42:55;;;;;;;7.18;4.57;;;;;;;21.72;nan;62084.88;5031199;28;20251;-57
2023/07/11 00:45:58;;;;;;;5.13;4.15;;;;;;;21.94;nan;61864.81;5031194;28;20172;-57
2023/07/11 00:48:24;;;;;;;5.20;3.47;;;;;;;21.96;nan;61797.41;5034729;28;20182;-58
2023/07/11 00:50:55;;;;;;;5.40;4.00;;;;;;;21.62;nan;61766.03;5034730;28;20171;-58
2023/07/11 00:53:20;;;;;;;7.78;3.88;;;;;;;21.69;nan;61784.94;5034749;28;20195;-57
2023/07/11 00:55:46;;;;;;;5.03;3.83;;;;;;;21.51;nan;61764.53;5034053;28;20173;-57
2023/07/11 00:58:12;;;;;;;7.38;3.67;;;;;;;21.85;nan;61807.75;5034679;28;20179;-58
2023/07/11 01:00:37;;;;;;;6.32;4.13;;;;;;;22.06;nan;61834.22;5034219;28;20182;-58
2023/07/11 01:03:03;;;;;;;5.82;4.32;;;;;;;21.91;nan;61960.84;5034583;28;20222;-58
2023/07/11 01:05:28;;;;;;;5.60;4.03;;;;;;;22.14;nan;62157.69;5034209;28;20171;-58
2023/07/11 01:07:53;;;;;;;6.68;3.92;;;;;;;22.32;nan;61858.53;5034578;28;20175;-59
2023/07/11 01:10:19;;;;;;;5.07;3.80;;;;;;;22.28;nan;61840.41;5034515;28;20254;-58
2023/07/11 01:12:47;;;;;;;6.45;4.20;;;;;;;22.42;nan;61955.25;5034428;28;20298;-59
2023/07/11 01:15:12;;;;;;;5.25;3.80;;;;;;;22.59;nan;61891.25;5033980;28;20214;-58
2023/07/11 01:17:38;;;;;;;5.97;3.95;;;;;;;22.58;nan;61848.44;5034350;28;20694;-58
2023/07/11 01:20:07;;;;;;;5.90;4.00;;;;;;;22.26;nan;61773.63;5034205;28;20638;-58
2023/07/11 01:22:35;;;;;;;5.05;3.80;;;;;;;22.47;nan;61875.00;5034058;28;20183;-58
2023/07/11 01:25:12;;;;;;;5.82;4.10;;;;;;;22.23;nan;62139.88;5034232;28;20176;-58
2023/07/11 01:27:39;;;;;;;7.40;4.15;;;;;;;21.97;nan;61792.75;5034145;28;20172;-57
2023/07/11 01:30:07;;;;;;;6.00;4.20;;;;;;;22.16;nan;61818.97;5032743;28;20549;-58
2023/07/11 01:32:33;;;;;;;7.60;3.80;;;;;;;21.87;nan;61856.84;5033816;28;20199;-58
2023/07/11 01:34:58;;;;;;;5.25;3.83;;;;;;;22.00;nan;61775.94;5033387;28;20194;-59
2023/07/11 01:37:24;;;;;;;6.57;4.15;;;;;;;22.01;nan;61938.38;5033949;28;20201;-59
2023/07/11 01:39:49;;;;;;;5.28;3.92;;;;;;;21.99;nan;61813.81;5034231;28;20177;-58
2023/07/11 01:42:15;;;;;;;7.30;3.75;;;;;;;22.06;nan;61838.88;5033724;28;20682;-59
2023/07/11 01:44:40;;;;;;;6.68;4.00;;;;;;;21.96;nan;61805.22;5034133;28;20234;-59
2023/07/11 01:47:07;;;;;;;6.32;3.55;;;;;;;22.32;nan;61844.94;5034100;28;20262;-58
2023/07/11 01:49:33;;;;;;;5.80;3.75;;;;;;;22.37;nan;61855.84;5031100;28;20186;-58
2023/07/11 01:52:13;;;;;;;10.25;4.10;;;;;;;22.37;nan;61882.44;5033481;28;20304;-58
2023/07/11 01:54:38;;;;;;;7.45;4.30;;;;;;;22.23;nan;61842.53;5033541;28;20184;-58
2023/07/11 01:57:04;;;;;;;7.28;4.10;;;;;;;22.21;nan;61887.13;5032569;28;20164;-58
2023/07/11 01:59:29;;;;;;;6.20;4.28;;;;;;;22.25;nan;61886.44;5032956;28;20525;-58
2023/07/11 02:01:55;;;;;;;5.57;3.95;;;;;;;22.26;nan;61869.38;5033149;28;20199;-58
2023/07/11 02:04:21;;;;;;;7.25;4.65;;;;;;;22.03;nan;61938.06;5033544;28;20310;-58
2023/07/11 02:06:51;;;;;;;5.40;3.67;;;;;;;22.16;nan;61855.41;5033213;28;20665;-58
2023/07/11 02:09:18;;;;;;;5.30;3.88;;;;;;;22.16;nan;61821.56;5032643;28;20183;-58
2023/07/11 02:11:43;;;;;;;5.20;3.90;;;;;;;21.98;nan;62121.78;5032651;28;20228;-57
2023/07/11 02:14:09;;;;;;;6.22;4.13;;;;;;;21.86;nan;61814.66;5032804;28;20183;-59
2023/07/11 02:16:34;;;;;;;5.75;4.03;;;;;;;21.82;nan;61804.94;5032777;28;20249;-58
2023/07/11 02:19:00;;;;;;;7.85;4.07;;;;;;;21.73;nan;61791.53;5032935;28;20233;-58
2023/07/11 02:21:25;;;;;;;7.15;4.15;;;;;;;21.69;nan;61980.00;5032661;28;20164;-58
2023/07/11 02:23:50;;;;;;;5.95;4.10;;;;;;;21.69;nan;61784.41;5031287;28;20742;-58
2023/07/11 02:26:16;;;;;;;7.40;4.35;;;;;;;21.52;nan;61768.25;5030439;28;20164;-59
2023/07/11 02:28:42;;;;;;;6.03;3.67;;;;;;;21.66;nan;61804.97;5031521;28;20294;-59
2023/07/11 02:31:07;;;;;;;6.45;4.40;;;;;;;21.81;nan;61777.19;5031664;28;20183;-59
2023/07/11 02:33:32;;;;;;;5.30;3.75;;;;;;;22.00;nan;61900.28;5031536;28;20589;-59
2023/07/11 02:35:58;;;;;;;6.55;4.22;;;;;;;21.77;nan;61783.06;5031716;28;20654;-58
2023/07/11 02:38:23;;;;;;;8.98;4.28;;;;;;;21.78;nan;61748.34;5032399;28;20176;-58
2023/07/11 02:40:49;;;;;;;5.57;4.20;;;;;;;22.01;nan;61797.31;5032296;28;20175;-59
2023/07/11 02:43:15;;;;;;;7.30;4.50;;;;;;;21.99;nan;62044.84;5032344;28;20616;-58
2023/07/11 02:45:41;;;;;;;5.80;3.80;;;;;;;21.92;nan;61755.84;5031919;28;20198;-59
2023/07/11 02:48:06;;;;;;;6.38;4.07;;;;;;;21.61;nan;61895.50;5032520;28;20563;-57
2023/07/11 02:50:32;;;;;;;5.88;4.22;;;;;;;21.83;nan;61886.13;5032209;28;20194;-58
2023/07/11 02:52:57;;;;;;;6.20;4.15;;;;;;;21.64;nan;61735.06;5032112;28;20190;-58
2023/07/11 02:55:22;;;;;;;6.32;4.38;;;;;;;21.89;nan;61919.53;5032115;28;20697;-59
2023/07/11 02:57:48;;;;;;;6.35;4.10;;;;;;;21.52;nan;61726.66;5032925;28;20171;-58
2023/07/11 03:00:13;;;;;;;8.57;4.43;;;;;;;21.72;nan;61902.81;5032374;28;20179;-58
2023/07/11 03:02:39;;;;;;;5.60;4.13;;;;;;;21.58;nan;61746.47;5032161;28;20227;-57
2023/07/11 03:05:05;;;;;;;6.18;3.53;;;;;;;21.58;nan;61796.44;5032567;28;20201;-59
2023/07/11 03:07:30;;;;;;;7.32;4.30;;;;;;;21.37;nan;61844.81;5032375;28;20171;-58
2023/07/11 03:09:55;;;;;;;6.20;4.15;;;;;;;21.66;nan;61794.00;5031180;28;20186;-58
2023/07/11 03:12:21;;;;;;;5.88;4.18;;;;;;;21.42;nan;61808.91;5032042;28;20246;-58
2023/07/11 03:14:50;;;;;;;6.72;4.45;;;;;;;21.36;nan;61854.66;5031347;28;20297;-58
2023/07/11 03:17:15;;;;;;;6.90;4.70;;;;;;;21.62;nan;61743.22;5031894;28;20168;-57
2023/07/11 03:19:42;;;;;;;7.07;4.20;;;;;;;22.01;nan;61803.06;5032017;28;20350;-58
2023/07/11 03:22:07;;;;;;;6.65;4.05;;;;;;;22.74;nan;61847.81;5031867;28;20631;-58
2023/07/11 03:24:33;;;;;;;6.97;4.53;;;;;;;22.98;nan;61929.81;5031964;28;20557;-58
2023/07/11 03:26:58;;;;;;;6.63;4.70;;;;;;;23.26;nan;62049.69;5032312;28;20641;-59
2023/07/11 03:29:23;;;;;;;7.88;4.50;;;;;;;23.47;nan;61992.78;5031773;28;20178;-57
2023/07/11 03:31:49;;;;;;;5.03;3.95;;;;;;;24.04;nan;62048.63;5031916;28;20197;-58
2023/07/11 03:34:14;;;;;;;4.95;4.00;;;;;;;24.19;nan;62152.47;5031837;28;20222;-58
2023/07/11 03:36:41;;;;;;;6.60;4.18;;;;;;;24.68;nan;62471.16;5031965;28;20172;-58
2023/07/11 03:39:06;;;;;;;8.48;4.82;;;;;;;24.78;nan;62490.44;5031744;28;20187;-58
2023/07/11 03:41:32;;;;;;;4.35;3.95;;;;;;;25.47;nan;62262.13;5032380;28;20712;-58
2023/07/11 03:43:57;;;;;;;4.82;3.92;;;;;;;25.47;nan;62202.50;5031873;28;20623;-59
2023/07/11 03:46:23;;;;;;;6.32;4.13;;;;;;;25.39;nan;62284.97;5031846;28;20665;-59
2023/07/11 03:48:48;;;;;;;6.30;4.10;;;;;;;26.37;nan;62343.31;5031651;28;20278;-58
2023/07/11 03:51:14;;;;;;;5.15;3.78;;;;;;;27.28;nan;62524.25;5032300;28;20225;-59
2023/07/11 03:53:39;;;;;;;5.10;3.63;;;;;;;27.81;nan;62594.81;5031670;28;20214;-59
2023/07/11 03:56:07;;;;;;;4.85;3.72;;;;;;;27.87;nan;62549.13;5032227;28;20297;-58
2023/07/11 03:58:33;;;;;;;4.78;3.75;;;;;;;27.93;nan;62653.19;5030951;28;20194;-59
2023/07/11 04:00:58;;;;;;;6.40;4.13;;;;;;;27.75;nan;62545.91;5031675;28;20175;-60
2023/07/11 04:03:24;;;;;;;5.72;4.20;;;;;;;27.80;nan;62658.75;5031880;28;20234;-59
2023/07/11 04:05:50;;;;;;;5.22;4.05;;;;;;;28.14;nan;62641.97;5031658;28;20264;-59
2023/07/11 04:08:15;;;;;;;4.68;3.75;;;;;;;28.33;nan;62684.75;5031089;28;20223;-57
2023/07/11 04:10:41;;;;;;;5.78;3.92;;;;;;;29.42;nan;62840.75;5031325;28;20698;-58
2023/07/11 04:13:06;;;;;;;6.43;4.13;;;;;;;30.32;nan;62973.41;5031749;28;20199;-58
2023/07/11 04:15:31;;;;;;;6.13;4.18;;;;;;;30.97;nan;63213.91;5031587;28;20354;-58
2023/07/11 04:17:57;;;;;;;10.95;4.20;;;;;;;31.85;nan;63275.16;5031579;28;20254;-58
2023/07/11 04:20:22;;;;;;;5.80;4.38;;;;;;;31.90;nan;63238.59;5031677;28;20206;-58
2023/07/11 04:22:48;;;;;;;5.65;4.15;;;;;;;31.54;nan;63158.03;5035094;28;20179;-58
2023/07/11 04:25:13;;;;;;;6.53;4.15;;;;;;;31.45;nan;63168.81;5034812;28;20241;-58
2023/07/11 04:27:38;;;;;;;6.72;3.83;;;;;;;30.31;nan;62975.47;5034782;28;20540;-57
2023/07/11 04:30:05;;;;;;;5.82;4.28;;;;;;;30.80;nan;62970.50;5035428;28;20166;-58
2023/07/11 04:32:30;;;;;;;5.85;4.32;;;;;;;30.92;nan;63103.13;5034991;28;20234;-57
2023/07/11 04:34:56;;;;;;;6.05;3.75;;;;;;;30.59;nan;63036.13;5034540;28;20310;-58
2023/07/11 04:37:21;;;;;;;4.95;4.13;;;;;;;30.33;nan;63093.28;5034860;28;20647;-57
2023/07/11 04:39:47;;;;;;;5.53;4.10;;;;;;;30.47;nan;62996.53;5034841;28;20174;-58
2023/07/11 04:42:12;;;;;;;5.13;3.95;;;;;;;30.26;nan;62978.22;5034518;28;20643;-59
2023/07/11 04:44:37;;;;;;;7.65;4.15;;;;;;;29.75;nan;62896.47;5034919;28;20171;-59
2023/07/11 04:47:03;;;;;;;5.80;4.10;;;;;;;30.34;nan;62989.47;5034951;28;20175;-59
2023/07/11 04:49:29;;;;;;;5.82;3.90;;;;;;;30.26;nan;63048.84;5034520;28;20167;-59
2023/07/11 04:51:55;;;;;;;6.85;4.35;;;;;;;30.08;nan;62935.88;5034709;28;20198;-60
2023/07/11 04:54:20;;;;;;;6.70;4.60;;;;;;;30.04;nan;63024.16;5035076;28;20198;-59
2023/07/11 04:56:54;;;;;;;6.05;4.03;;;;;;;29.22;nan;62802.00;5032283;28;20225;-60
2023/07/11 04:59:20;;;;;;;5.65;4.10;;;;;;;29.64;nan;62851.66;5033867;28;20269;-59
2023/07/11 05:01:45;;;;;;;7.00;4.25;;;;;;;30.16;nan;62942.41;5033823;28;20270;-59
2023/07/11 05:04:10;;;;;;;6.53;4.13;;;;;;;30.11;nan;62931.97;5033487;28;20223;-58
2023/07/11 05:06:36;;;;;;;6.38;4.32;;;;;;;30.28;nan;63006.31;5034253;28;20635;-59
2023/07/11 05:09:01;;;;;;;6.60;4.88;;;;;;;30.17;nan;63018.00;5034055;28;20195;-59
2023/07/11 05:11:27;;;;;;;6.43;4.00;;;;;;;30.03;nan;62948.59;5034293;28;20170;-60
2023/07/11 05:13:52;;;;;;;6.70;4.20;;;;;;;29.60;nan;62768.59;5034128;28;20703;-60
2023/07/11 05:16:20;;;;;;;6.38;3.85;;;;;;;30.13;nan;62923.16;5034143;28;20170;-61
2023/07/11 05:18:47;;;;;;;5.32;4.05;;;;;;;29.75;nan;62845.84;5033699;28;20308;-59
2023/07/11 05:21:16;;;;;;;6.90;4.55;;;;;;;29.64;nan;62846.41;5032897;28;20174;-59
2023/07/11 05:23:42;;;;;;;7.07;4.35;;;;;;;29.96;nan;62922.09;5033665;28;20167;-59
2023/07/11 05:26:08;;;;;;;6.60;4.25;;;;;;;29.89;nan;62898.81;5033622;28;20186;-59
2023/07/11 05:28:34;;;;;;;6.97;4.57;;;;;;;29.60;nan;62920.84;5033224;28;20246;-59
2023/07/11 05:31:01;;;;;;;8.88;4.20;;;;;;;29.63;nan;62885.34;5033465;28;20244;-60
2023/07/11 05:33:28;;;;;;;6.35;4.50;;;;;;;30.43;nan;63274.19;5031896;28;20225;-59
2023/07/11 05:38:45;;;;;;;5.88;3.63;;;;;;;30.04;nan;62968.78;5033415;28;20563;-58
2023/07/11 05:41:10;;;;;;;6.72;4.32;;;;;;;30.52;nan;63083.50;5032047;28;20177;-59
2023/07/11 05:43:36;;;;;;;6.20;4.22;;;;;;;29.92;nan;62941.25;5033488;28;20603;-60
2023/07/11 05:46:02;;;;;;;6.10;4.57;;;;;;;29.10;nan;62898.78;5032880;28;20188;-60
2023/07/11 05:48:27;;;;;;;6.97;4.25;;;;;;;29.85;nan;63168.34;5033394;28;20181;-59
2023/07/11 05:51:17;;;;;;;6.78;4.43;;;;;;;29.74;nan;63203.69;5033772;28;20568;-60
2023/07/11 05:53:44;;;;;;;8.00;3.90;;;;;;;29.62;nan;62855.22;5033727;28;20202;-60
2023/07/11 05:56:10;;;;;;;6.07;4.55;;;;;;;29.40;nan;62985.97;5033174;28;20257;-60
2023/07/11 05:58:36;;;;;;;6.10;4.30;;;;;;;29.18;nan;62786.31;5033206;28;20163;-60
2023/07/11 06:01:01;;;;;;;7.45;4.28;;;;;;;29.42;nan;62827.00;5033745;28;20175;-60
2023/07/11 06:03:29;;;;;;;6.97;4.07;;;;;;;29.04;nan;62791.88;5033536;28;20333;-59
2023/07/11 06:06:03;;;;;;;6.55;4.38;;;;;;;28.79;nan;62813.78;5033499;28;20171;-59
2023/07/11 06:08:30;;;;;;;7.72;4.63;;;;;;;28.73;nan;62856.31;5033378;28;20177;-59
2023/07/11 06:10:57;;;;;;;7.45;4.82;;;;;;;28.66;nan;62758.81;5033233;28;20263;-60
2023/07/11 06:13:24;;;;;;;7.25;4.55;;;;;;;28.57;nan;62696.47;5033051;28;20285;-60
2023/07/11 06:15:55;;;;;;;8.10;5.22;;;;;;;28.77;nan;62785.16;5033146;28;20630;-59
2023/07/11 06:18:20;;;;;;;6.75;4.90;;;;;;;28.76;nan;62822.94;5033134;28;20159;-60
2023/07/11 06:20:46;;;;;;;7.82;5.13;;;;;;;28.43;nan;62733.03;5032935;28;20201;-60
2023/07/11 06:23:11;;;;;;;7.22;4.65;;;;;;;28.93;nan;62843.00;5033185;28;20649;-60
2023/07/11 06:25:38;;;;;;;9.35;4.72;;;;;;;29.02;nan;62797.47;5032919;28;20172;-60
2023/07/11 06:28:03;;;;;;;6.78;5.28;;;;;;;29.14;nan;62798.06;5032906;28;20205;-60
2023/07/11 06:30:29;;;;;;;6.10;4.32;;;;;;;29.70;nan;63183.25;5032982;28;20171;-61
2023/07/11 06:32:54;;;;;;;5.68;4.38;;;;;;;29.82;nan;62856.50;5032704;28;20202;-59
2023/07/11 06:35:19;;;;;;;7.28;4.53;;;;;;;30.01;nan;63014.84;5032614;28;20240;-59
2023/07/11 06:37:45;;;;;;;7.53;5.35;;;;;;;29.78;nan;62868.28;5032698;28;20174;-60
2023/07/11 06:40:10;;;;;;;6.03;4.60;;;;;;;29.87;nan;62932.84;5032751;28;20170;-61
2023/07/11 06:42:36;;;;;;;8.07;5.00;;;;;;;29.59;nan;62870.22;5032447;28;20175;-61
2023/07/11 06:45:02;;;;;;;7.05;4.63;;;;;;;29.33;nan;62819.88;5031387;28;20182;-61
2023/07/11 06:47:27;;;;;;;6.28;4.70;;;;;;;29.72;nan;62919.41;5032389;28;20531;-59
2023/07/11 06:49:53;;;;;;;7.50;5.07;;;;;;;30.00;nan;62992.59;5032250;28;20182;-60
2023/07/11 06:52:18;;;;;;;6.78;4.60;;;;;;;30.05;nan;63035.84;5032314;28;20225;-60
2023/07/11 06:54:43;;;;;;;7.60;5.10;;;;;;;29.61;nan;62877.78;5032352;28;20232;-60
2023/07/11 06:57:09;;;;;;;8.63;5.00;;;;;;;29.40;nan;62845.78;5032330;28;20167;-61
2023/07/11 06:59:34;;;;;;;9.48;5.10;;;;;;;29.64;nan;62925.44;5032349;28;20202;-61
2023/07/11 07:01:59;;;;;;;6.88;4.65;;;;;;;29.45;nan;62838.34;5031087;28;20660;-60
2023/07/11 07:04:25;;;;;;;8.13;5.28;;;;;;;29.63;nan;62782.59;5032524;28;20219;-59
2023/07/11 07:06:50;;;;;;;10.90;4.70;;;;;;;29.70;nan;62972.44;5032181;28;20173;-60
2023/07/11 07:09:16;;;;;;;7.15;4.85;;;;;;;30.06;nan;63000.06;5032037;28;20626;-60
2023/07/11 07:11:41;;;;;;;6.25;4.60;;;;;;;30.02;nan;62928.97;5031758;28;20177;-60
2023/07/11 07:14:09;;;;;;;7.85;5.07;;;;;;;30.14;nan;62974.41;5032218;28;20206;-60
2023/07/11 07:16:35;;;;;;;8.75;5.40;;;;;;;30.25;nan;63066.75;5033030;28;20183;-60
2023/07/11 07:19:02;;;;;;;7.47;4.88;;;;;;;30.30;nan;62961.13;5032355;28;20590;-60
2023/07/11 07:21:27;;;;;;;7.63;4.90;;;;;;;30.59;nan;63031.41;5032098;28;20209;-60
2023/07/11 07:23:53;;;;;;;7.13;4.60;;;;;;;30.40;nan;62977.31;5031766;28;20211;-60
2023/07/11 07:26:19;;;;;;;6.60;4.55;;;;;;;30.53;nan;63061.47;5032067;28;20200;-61
2023/07/11 07:28:44;;;;;;;6.35;4.70;;;;;;;30.87;nan;63086.81;5032016;28;20202;-61
2023/07/11 07:31:09;;;;;;;6.28;4.60;;;;;;;30.59;nan;63105.31;5031926;28;20253;-59
2023/07/11 07:33:35;;;;;;;7.60;4.78;;;;;;;30.96;nan;63099.78;5031611;28;20206;-60
2023/07/11 07:36:05;;;;;;;6.43;5.03;;;;;;;30.99;nan;63105.28;5031125;28;20183;-61
2023/07/11 07:38:31;;;;;;;6.53;4.85;;;;;;;31.03;nan;63197.06;5031470;28;20186;-61
2023/07/11 07:41:04;;;;;;;6.95;5.03;;;;;;;31.09;nan;63336.63;5031787;28;20241;-61
2023/07/11 07:43:31;;;;;;;6.72;4.65;;;;;;;31.18;nan;63158.88;5031855;28;20253;-60
2023/07/11 07:45:59;;;;;;;8.25;4.75;;;;;;;31.25;nan;63174.88;5031649;28;20559;-59
2023/07/11 07:48:24;;;;;;;6.25;4.65;;;;;;;31.01;nan;63078.59;5031558;28;20187;-61
2023/07/11 07:50:50;;;;;;;6.30;4.60;;;;;;;30.83;nan;63052.59;5031687;28;20197;-60
2023/07/11 07:53:16;;;;;;;7.05;4.80;;;;;;;31.12;nan;63350.09;5031148;28;20693;-60
2023/07/11 07:55:43;;;;;;;6.80;5.40;;;;;;;31.14;nan;63096.75;5032318;28;20179;-60
2023/07/11 07:58:10;;;;;;;6.38;4.47;;;;;;;31.16;nan;63237.91;5035872;28;20177;-60
2023/07/11 08:00:36;;;;;;;5.70;4.20;;;;;;;31.02;nan;63111.44;5036210;28;20190;-59
2023/07/11 08:03:02;;;;;;;8.18;4.45;;;;;;;31.31;nan;63138.91;5035861;28;20225;-60
2023/07/11 08:05:27;;;;;;;6.20;4.50;;;;;;;31.35;nan;63440.03;5035748;28;20177;-60
2023/07/11 08:07:52;;;;;;;7.22;4.68;;;;;;;31.55;nan;63484.34;5035290;28;20202;-60
2023/07/11 08:10:18;;;;;;;6.22;4.60;;;;;;;31.54;nan;63179.19;5035873;28;20258;-60
2023/07/11 08:12:44;;;;;;;6.22;4.43;;;;;;;31.56;nan;63255.53;5035310;28;20209;-60
2023/07/11 08:15:11;;;;;;;8.30;4.50;;;;;;;31.36;nan;63161.09;5034397;28;20178;-60
2023/07/11 08:17:38;;;;;;;7.28;4.40;;;;;;;31.76;nan;63258.91;5035557;28;20622;-60
2023/07/11 08:20:04;;;;;;;6.30;4.25;;;;;;;31.87;nan;63198.13;5035256;28;20231;-60
2023/07/11 08:22:30;;;;;;;6.10;4.38;;;;;;;31.90;nan;63380.84;5035253;28;20183;-60
2023/07/11 08:24:55;;;;;;;6.18;4.32;;;;;;;31.65;nan;63235.66;5035152;28;20179;-60
2023/07/11 08:27:21;;;;;;;7.80;3.80;;;;;;;31.88;nan;63209.28;5035366;28;20269;-61
2023/07/11 08:29:46;;;;;;;6.30;4.22;;;;;;;31.84;nan;63218.47;5035775;28;20262;-60
2023/07/11 08:32:12;;;;;;;5.00;4.35;;;;;;;31.82;nan;63263.19;5035361;28;20575;-59
2023/07/11 08:34:38;;;;;;;7.40;4.35;;;;;;;32.06;nan;63279.69;5035067;28;20210;-60
2023/07/11 08:37:04;;;;;;;6.25;4.45;;;;;;;31.89;nan;63234.22;5034780;28;20193;-60
2023/07/11 08:39:29;;;;;;;6.05;4.25;;;;;;;31.86;nan;63333.91;5035059;28;20175;-59
2023/07/11 08:41:56;;;;;;;5.88;4.50;;;;;;;31.88;nan;63389.09;5035161;28;20185;-59
2023/07/11 08:45:05;;;;;;;6.53;4.40;;;;;;;31.89;nan;63300.34;5035076;28;20641;-60
2023/07/11 08:47:36;;;;;;;10.95;6.10;;;;;;;32.20;nan;63359.34;5033781;28;20205;-60
2023/07/11 08:50:18;;;;;;;8.80;6.13;;;;;;;32.37;nan;63345.13;5034579;28;20173;-61
2023/07/11 08:52:48;;;;;;;11.93;7.68;;;;;;;32.35;nan;63350.19;5034313;28;20208;-60
2023/07/11 08:55:24;;;;;;;8.85;4.43;;;;;;;32.31;nan;63433.50;5034412;28;20174;-60
2023/07/11 08:58:10;;;;;;;8.05;4.80;;;;;;;32.39;nan;63347.44;5032942;28;20166;-60
2023/07/11 09:00:36;;;;;;;6.05;4.57;;;;;;;32.01;nan;63409.97;5033352;28;20560;-62
2023/07/11 09:03:09;;;;;;;7.10;5.00;;;;;;;31.97;nan;63256.66;5034050;28;20698;-60
2023/07/11 09:05:49;;;;;;;7.10;5.03;;;;;;;32.06;nan;63221.47;5034312;28;20163;-59
2023/07/11 09:08:17;;;;;;;7.13;4.63;;;;;;;32.20;nan;63311.72;5033367;28;20167;-59
2023/07/11 09:10:48;;;;;;;7.88;5.15;;;;;;;32.15;nan;63557.88;5034202;28;20169;-59
2023/07/11 09:13:29;;;;;;;7.47;4.90;;;;;;;32.68;nan;63393.59;5033772;28;20198;-59
2023/07/11 09:16:03;;;;;;;8.15;5.55;;;;;;;32.57;nan;63467.66;5034013;28;20171;-60
2023/07/11 09:19:03;;;;;;;7.88;5.30;;;;;;;32.83;nan;63426.78;5033750;28;20170;-60
2023/07/11 09:21:43;;;;;;;6.82;4.68;;;;;;;32.79;nan;63419.50;5031404;28;20194;-59
2023/07/11 09:24:31;;;;;;;7.03;5.10;;;;;;;32.62;nan;63429.00;5033371;28;20162;-60
2023/07/11 09:27:08;;;;;;;6.25;4.22;;;;;;;32.73;nan;63322.56;5033541;28;20163;-61
2023/07/11 09:29:33;;;;;;;7.03;5.07;;;;;;;32.79;nan;63381.84;5033908;28;20166;-59
2023/07/11 09:32:03;;;;;;;6.68;4.95;;;;;;;33.07;nan;63485.69;5034018;28;20205;-59
2023/07/11 09:34:36;;;;;;;6.97;4.60;;;;;;;32.81;nan;63506.59;5033442;28;20598;-60
2023/07/11 09:37:34;;;;;;;6.13;4.70;;;;;;;32.99;nan;63476.47;5033618;28;20657;-60
2023/07/11 09:40:00;;;;;;;6.68;4.57;;;;;;;32.94;nan;63489.22;5033483;28;20198;-59
2023/07/11 09:42:45;;;;;;;6.72;4.57;;;;;;;32.88;nan;63349.84;5033434;28;20634;-60
2023/07/11 09:45:13;;;;;;;6.15;4.50;;;;;;;33.11;nan;63442.63;5033499;28;20605;-60
2023/07/11 09:47:41;;;;;;;8.10;5.45;;;;;;;33.05;nan;63470.16;5033125;28;20171;-60
2023/07/11 09:50:32;;;;;;;7.13;5.30;;;;;;;33.45;nan;63563.53;5032928;28;20185;-60
2023/07/11 09:53:00;;;;;;;8.43;4.35;;;;;;;33.13;nan;63545.06;5033157;28;20255;-59
2023/07/11 09:55:33;;;;;;;8.73;4.65;;;;;;;33.33;nan;63549.06;5033675;28;20167;-59
2023/07/11 09:58:00;;;;;;;6.50;4.60;;;;;;;33.16;nan;63413.97;5032281;28;20720;-59
2023/07/11 10:00:25;;;;;;;7.07;4.72;;;;;;;32.93;nan;63466.28;5032822;28;20212;-60
2023/07/11 10:02:51;;;;;;;8.95;4.82;;;;;;;33.34;nan;63529.59;5032779;28;20242;-59
2023/07/11 10:05:21;;;;;;;6.50;4.50;;;;;;;33.37;nan;63620.56;5032489;28;20171;-60
2023/07/11 10:08:15;;;;;;;7.35;4.82;;;;;;;33.06;nan;63455.41;5033071;28;20167;-59
2023/07/11 10:10:52;;;;;;;8.50;5.47;;;;;;;33.48;nan;63592.94;5032288;28;20313;-60
2023/07/11 10:13:18;;;;;;;6.93;4.65;;;;;;;33.47;nan;63578.53;5032428;28;20400;-60
2023/07/11 10:15:48;;;;;;;9.55;4.88;;;;;;;33.46;nan;63585.31;5032618;28;20265;-59
2023/07/11 10:18:19;;;;;;;7.22;4.70;;;;;;;33.81;nan;63578.06;5030790;28;20267;-60
2023/07/11 10:20:47;;;;;;;6.95;4.78;;;;;;;33.51;nan;63477.06;5032292;28;20166;-59
2023/07/11 10:23:16;;;;;;;6.95;4.88;;;;;;;33.54;nan;63552.72;5032109;28;20224;-59
2023/07/11 10:25:43;;;;;;;8.10;4.82;;;;;;;33.85;nan;63632.53;5032712;28;20198;-60
2023/07/11 10:28:32;;;;;;;7.07;4.80;;;;;;;34.02;nan;63668.13;5032743;28;20179;-59
2023/07/11 10:31:07;;;;;;;7.55;5.10;;;;;;;33.98;nan;63666.72;5032558;28;20642;-60
2023/07/11 10:33:36;;;;;;;6.53;4.82;;;;;;;33.69;nan;63548.28;5032324;28;20190;-59
2023/07/11 10:36:18;;;;;;;6.50;4.63;;;;;;;33.68;nan;63621.97;5032519;28;20171;-60
2023/07/11 10:39:00;;;;;;;7.13;4.68;;;;;;;33.53;nan;63578.06;5032500;28;20257;-58
2023/07/11 10:41:36;;;;;;;7.65;4.80;;;;;;;33.43;nan;63577.13;5032376;28;20174;-59
2023/07/11 10:44:07;;;;;;;7.70;4.40;;;;;;;33.46;nan;63485.13;5032009;28;20313;-59
2023/07/11 10:46:42;;;;;;;8.75;4.63;;;;;;;33.69;nan;63596.03;5031418;28;20542;-59
2023/07/11 10:49:23;;;;;;;7.28;4.78;;;;;;;33.85;nan;63523.75;5029186;28;20170;-59
2023/07/11 10:52:19;;;;;;;7.05;4.53;;;;;;;34.00;nan;63676.41;5032146;28;20181;-57
2023/07/11 10:54:48;;;;;;;7.35;4.95;;;;;;;33.83;nan;63559.16;5027766;28;20201;-59
2023/07/11 10:57:38;;;;;;;5.50;4.13;;;;;;;34.29;nan;63627.13;5031626;28;20174;-58
2023/07/11 11:00:08;;;;;;;7.38;4.70;;;;;;;34.14;nan;63695.28;5031756;28;20179;-59
2023/07/11 11:02:48;;;;;;;8.55;4.05;;;;;;;33.91;nan;63578.44;5031547;28;20229;-60
2023/07/11 11:05:24;;;;;;;6.53;4.38;;;;;;;33.79;nan;63583.13;5030485;28;20210;-60
2023/07/11 11:07:56;;;;;;;9.32;4.50;;;;;;;33.84;nan;63549.13;5031874;28;20264;-59
2023/07/11 11:10:34;;;;;;;5.47;4.10;;;;;;;34.07;nan;63636.75;5031900;28;20163;-59
2023/07/11 11:13:13;;;;;;;6.38;4.63;;;;;;;33.88;nan;63649.84;5031793;28;20202;-63
2023/07/11 11:16:01;;;;;;;7.90;4.75;;;;;;;34.28;nan;63729.50;5032195;28;20541;-60
2023/07/11 11:18:29;;;;;;;5.78;4.38;;;;;;;34.27;nan;63646.03;5001884;28;20191;-60
2023/07/11 11:21:15;;;;;;;6.57;4.38;;;;;;;34.02;nan;63729.16;5031476;28;20187;-61
2023/07/11 11:24:09;;;;;;;9.30;4.22;;;;;;;34.16;nan;63682.25;5031186;28;20556;-60
2023/07/11 11:26:57;;;;;;;6.80;4.57;;;;;;;33.99;nan;63677.91;5031558;28;20579;-61
2023/07/11 11:29:41;;;;;;;6.95;4.70;;;;;;;34.28;nan;63732.16;5031734;28;20224;-60
2023/07/11 11:32:18;;;;;;;5.57;4.30;;;;;;;34.07;nan;63623.47;5011523;28;20199;-61
2023/07/11 11:34:54;;;;;;;5.55;4.30;;;;;;;33.94;nan;63622.28;5011494;28;20175;-61
2023/07/11 11:37:57;;;;;;;5.82;4.32;;;;;;;33.96;nan;63555.59;5011554;28;20171;-58
2023/07/11 11:40:28;;;;;;;7.95;4.93;;;;;;;33.96;nan;63695.66;5006118;28;20195;-60
2023/07/11 11:43:01;;;;;;;6.45;4.40;;;;;;;34.05;nan;63642.38;5011570;28;20166;-58
2023/07/11 11:45:28;;;;;;;6.85;4.68;;;;;;;34.24;nan;63860.84;5011756;28;20183;-59
2023/07/11 11:47:56;;;;;;;7.35;4.88;;;;;;;34.26;nan;63756.41;5011506;28;20187;-60
2023/07/11 11:50:23;;;;;;;7.63;4.28;;;;;;;34.41;nan;63675.50;5011700;28;20675;-60
2023/07/11 11:52:57;;;;;;;7.15;4.15;;;;;;;34.24;nan;63711.59;5011136;28;20199;-59
2023/07/11 11:55:35;;;;;;;6.60;4.40;;;;;;;34.37;nan;63690.06;5010361;28;20183;-60
2023/07/11 11:58:01;;;;;;;7.57;4.30;;;;;;;34.34;nan;63689.25;5011700;28;20163;-59
2023/07/11 12:00:34;;;;;;;6.63;5.00;;;;;;;34.25;nan;63630.47;5011671;28;20218;-59
2023/07/11 12:03:00;;;;;;;6.07;4.38;;;;;;;33.87;nan;63664.59;5011261;28;20230;-62